DLH4PH EDDF-EDDF
Flight info
| Callsign | DLH4PH |
|---|---|
| Flight time | 0h 6m |
| Altitude | 38000 |
| Route | OBOKA2E/07C OBOKA Z29 TORNU DCT ABNED L980 LOGAN EDDF/07C |
| Aircraft | A20N/M-SDE2E3FGIJ1LORWXYZ/HB1 |
Departure
| Time | 2026-04-15 09:36 |
|---|---|
| Airport | Frankfurt Main Airport (EDDF) |
Arrival
| Time | 2026-04-15 09:43 |
|---|---|
| Airport | Frankfurt Main Airport (EDDF) |
| Time | Latitude | Longitude | Altitude | Speed | Heading |
|---|---|---|---|---|---|
| 2026-04-15 09:29 | 50.23730 | 7.50440 | 10966 ft | 313 kts | 254° |
| 2026-04-15 09:29 | 50.23107 | 7.47185 | 10504 ft | 313 kts | 254° |
| 2026-04-15 09:29 | 50.22219 | 7.44135 | 10223 ft | 306 kts | 232° |
| 2026-04-15 09:29 | 50.20664 | 7.41954 | 10013 ft | 299 kts | 214° |
| 2026-04-15 09:30 | 50.18831 | 7.40497 | 9712 ft | 294 kts | 202° |
| 2026-04-15 09:30 | 50.16885 | 7.39615 | 9511 ft | 291 kts | 192° |
| 2026-04-15 09:30 | 50.14857 | 7.39205 | 9413 ft | 296 kts | 186° |
| 2026-04-15 09:30 | 50.12799 | 7.38879 | 9343 ft | 299 kts | 189° |
| 2026-04-15 09:31 | 50.10756 | 7.38396 | 9257 ft | 303 kts | 188° |
| 2026-04-15 09:31 | 50.08655 | 7.38475 | 9224 ft | 304 kts | 170° |
| 2026-04-15 09:31 | 50.06682 | 7.39651 | 9141 ft | 307 kts | 150° |
| 2026-04-15 09:31 | 50.05057 | 7.41851 | 8863 ft | 318 kts | 130° |
| 2026-04-15 09:32 | 50.03905 | 7.44838 | 8555 ft | 327 kts | 115° |
| 2026-04-15 09:32 | 50.03223 | 7.48233 | 8443 ft | 330 kts | 103° |
| 2026-04-15 09:32 | 50.02925 | 7.51736 | 8481 ft | 327 kts | 97° |
| 2026-04-15 09:32 | 50.02755 | 7.55303 | 8426 ft | 332 kts | 95° |
| 2026-04-15 09:33 | 50.02569 | 7.58843 | 8420 ft | 325 kts | 99° |
| 2026-04-15 09:33 | 50.02187 | 7.62236 | 8147 ft | 323 kts | 105° |
| 2026-04-15 09:33 | 50.01631 | 7.65636 | 7651 ft | 327 kts | 108° |
| 2026-04-15 09:33 | 50.01012 | 7.69057 | 7059 ft | 331 kts | 109° |
| 2026-04-15 09:34 | 50.00390 | 7.72514 | 6391 ft | 334 kts | 107° |
| 2026-04-15 09:34 | 49.99820 | 7.76012 | 5780 ft | 331 kts | 107° |
| 2026-04-15 09:34 | 49.99229 | 7.79402 | 5486 ft | 319 kts | 108° |
| 2026-04-15 09:34 | 49.98684 | 7.82696 | 5127 ft | 311 kts | 104° |
| 2026-04-15 09:35 | 49.98275 | 7.85939 | 4846 ft | 301 kts | 102° |
| 2026-04-15 09:35 | 49.97889 | 7.89059 | 4650 ft | 288 kts | 103° |
| 2026-04-15 09:35 | 49.97470 | 7.92039 | 4715 ft | 275 kts | 105° |
| 2026-04-15 09:35 | 49.96966 | 7.94815 | 4534 ft | 266 kts | 110° |
| 2026-04-15 09:36 | 49.96406 | 7.97499 | 4327 ft | 257 kts | 105° |
| 2026-04-15 09:36 | 49.96064 | 8.00201 | 4190 ft | 250 kts | 103° |
| 2026-04-15 09:36 | 49.95690 | 8.02776 | 4258 ft | 244 kts | 105° |
| 2026-04-15 09:36 | 49.95339 | 8.05398 | 4242 ft | 251 kts | 99° |
| 2026-04-15 09:37 | 49.95164 | 8.08100 | 4160 ft | 252 kts | 96° |
| 2026-04-15 09:37 | 49.95065 | 8.10810 | 4114 ft | 251 kts | 93° |
| 2026-04-15 09:37 | 49.95058 | 8.13521 | 4111 ft | 250 kts | 89° |
| 2026-04-15 09:37 | 49.95175 | 8.16149 | 4163 ft | 245 kts | 89° |
| 2026-04-15 09:38 | 49.95290 | 8.18748 | 4107 ft | 235 kts | 84° |
| 2026-04-15 09:38 | 49.95602 | 8.21171 | 4053 ft | 229 kts | 78° |
| 2026-04-15 09:38 | 49.96054 | 8.23528 | 3934 ft | 225 kts | 72° |
| 2026-04-15 09:38 | 49.96630 | 8.25779 | 3855 ft | 223 kts | 71° |
| 2026-04-15 09:39 | 49.97188 | 8.28012 | 3633 ft | 220 kts | 72° |
| 2026-04-15 09:39 | 49.97669 | 8.30237 | 3553 ft | 213 kts | 75° |
| 2026-04-15 09:39 | 49.98099 | 8.32426 | 3318 ft | 212 kts | 76° |
| 2026-04-15 09:39 | 49.98546 | 8.34610 | 3216 ft | 211 kts | 70° |
| 2026-04-15 09:40 | 49.99207 | 8.36660 | 2917 ft | 214 kts | 66° |
| 2026-04-15 09:40 | 49.99771 | 8.38785 | 2736 ft | 211 kts | 73° |
| 2026-04-15 09:40 | 50.00230 | 8.40930 | 2383 ft | 204 kts | 71° |
| 2026-04-15 09:40 | 50.00770 | 8.42911 | 2129 ft | 193 kts | 70° |
| 2026-04-15 09:41 | 50.01246 | 8.44871 | 1705 ft | 194 kts | 72° |
| 2026-04-15 09:41 | 50.01682 | 8.46820 | 1428 ft | 189 kts | 71° |
| 2026-04-15 09:41 | 50.02124 | 8.48714 | 1058 ft | 182 kts | 72° |
| 2026-04-15 09:41 | 50.02545 | 8.50497 | 883 ft | 164 kts | 72° |
| 2026-04-15 09:42 | 50.02936 | 8.52095 | 624 ft | 152 kts | 71° |
| 2026-04-15 09:42 | 50.03288 | 8.53552 | 404 ft | 136 kts | 71° |
| 2026-04-15 09:42 | 50.03586 | 8.54806 | 361 ft | 116 kts | 71° |
| 2026-04-15 09:42 | 50.03829 | 8.55839 | 361 ft | 89 kts | 70° |
| 2026-04-15 09:43 | 50.04020 | 8.56635 | 366 ft | 71 kts | 68° |
| 2026-04-15 09:43 | 50.04158 | 8.57234 | 368 ft | 49 kts | 71° |
| 2026-04-15 09:43 | 50.04267 | 8.57658 | 367 ft | 29 kts | 61° |
| 2026-04-15 09:43 | 50.04335 | 8.57948 | 365 ft | 28 kts | 70° |
| 2026-04-15 09:44 | 50.04428 | 8.58110 | 366 ft | 19 kts | 2° |
| 2026-04-15 09:44 | 50.04491 | 8.58086 | 367 ft | 0 kts | 339° |
| 2026-04-15 09:48 | 50.04492 | 8.58086 | 367 ft | 1 kts | 339° |
| 2026-04-15 09:48 | 50.04536 | 8.58046 | 367 ft | 11 kts | 306° |
| 2026-04-15 09:48 | 50.04515 | 8.57918 | 365 ft | 15 kts | 250° |
| 2026-04-15 09:48 | 50.04488 | 8.57800 | 364 ft | 12 kts | 251° |
| 2026-04-15 09:49 | 50.04455 | 8.57654 | 368 ft | 16 kts | 249° |
| 2026-04-15 09:49 | 50.04411 | 8.57473 | 370 ft | 20 kts | 252° |
| 2026-04-15 09:49 | 50.04364 | 8.57275 | 366 ft | 18 kts | 250° |
| 2026-04-15 09:49 | 50.04318 | 8.57074 | 367 ft | 21 kts | 247° |
| 2026-04-15 09:50 | 50.04288 | 8.56959 | 366 ft | 12 kts | 249° |
| 2026-04-15 09:50 | 50.04249 | 8.56795 | 368 ft | 19 kts | 250° |
| 2026-04-15 09:50 | 50.04204 | 8.56606 | 367 ft | 22 kts | 247° |
| 2026-04-15 09:50 | 50.04144 | 8.56356 | 366 ft | 10 kts | 249° |
| 2026-04-15 09:51 | 50.04114 | 8.56230 | 367 ft | 18 kts | 250° |
| 2026-04-15 09:51 | 50.04076 | 8.56057 | 365 ft | 14 kts | 258° |
| 2026-04-15 09:51 | 50.04140 | 8.55943 | 367 ft | 17 kts | 338° |
| 2026-04-15 09:51 | 50.04255 | 8.55955 | 367 ft | 17 kts | 19° |
| 2026-04-15 09:52 | 50.04346 | 8.55926 | 369 ft | 14 kts | 337° |
| 2026-04-15 09:52 | 50.04402 | 8.55842 | 364 ft | 9 kts | 267° |
| 2026-04-15 09:52 | 50.04374 | 8.55747 | 366 ft | 10 kts | 195° |
| 2026-04-15 09:52 | 50.04328 | 8.55769 | 365 ft | 1 kts | 158° |
| 2026-04-15 09:53 | 50.04307 | 8.55780 | 367 ft | 5 kts | 161° |
| 2026-04-15 09:53 | 50.04292 | 8.55788 | 368 ft | 0 kts | 160° |
| 2026-04-15 09:53 | 50.04291 | 8.55789 | 368 ft | 0 kts | 160° |
| 2026-04-15 10:08 | 50.04305 | 8.55781 | 367 ft | 2 kts | 160° |
| 2026-04-15 10:08 | 50.04320 | 8.55772 | 368 ft | 2 kts | 160° |
| 2026-04-15 10:09 | 50.04335 | 8.55764 | 367 ft | 2 kts | 160° |
| 2026-04-15 10:09 | 50.04350 | 8.55755 | 368 ft | 2 kts | 144° |
| 2026-04-15 10:09 | 50.04363 | 8.55734 | 366 ft | 3 kts | 116° |
| 2026-04-15 10:09 | 50.04369 | 8.55701 | 371 ft | 3 kts | 85° |
| 2026-04-15 10:10 | 50.04369 | 8.55696 | 365 ft | 3 kts | 72° |
| 2026-04-15 10:10 | 50.04377 | 8.55726 | 368 ft | 3 kts | 66° |
| 2026-04-15 10:10 | 50.04385 | 8.55754 | 365 ft | 2 kts | 64° |
| 2026-04-15 10:10 | 50.04395 | 8.55788 | 371 ft | 4 kts | 66° |
| 2026-04-15 10:11 | 50.04406 | 8.55830 | 367 ft | 4 kts | 70° |
| 2026-04-15 10:11 | 50.04415 | 8.55875 | 368 ft | 4 kts | 72° |
| 2026-04-15 10:11 | 50.04423 | 8.55920 | 365 ft | 4 kts | 79° |
| 2026-04-15 10:11 | 50.04425 | 8.55967 | 365 ft | 4 kts | 87° |
| 2026-04-15 10:12 | 50.04429 | 8.56014 | 371 ft | 4 kts | 78° |
| 2026-04-15 10:12 | 50.04439 | 8.56059 | 367 ft | 4 kts | 70° |
| 2026-04-15 10:12 | 50.04449 | 8.56102 | 370 ft | 4 kts | 70° |
| 2026-04-15 10:12 | 50.04459 | 8.56146 | 369 ft | 4 kts | 70° |
| 2026-04-15 10:13 | 50.04469 | 8.56190 | 367 ft | 4 kts | 69° |
| 2026-04-15 10:13 | 50.04480 | 8.56234 | 368 ft | 4 kts | 69° |
| 2026-04-15 10:13 | 50.04489 | 8.56275 | 367 ft | 4 kts | 72° |
| 2026-04-15 10:13 | 50.04478 | 8.56313 | 370 ft | 4 kts | 151° |
| 2026-04-15 10:14 | 50.04450 | 8.56326 | 368 ft | 2 kts | 169° |
| 2026-04-15 10:14 | 50.04438 | 8.56329 | 370 ft | 1 kts | 170° |
| 2026-04-15 10:14 | 50.04433 | 8.56331 | 370 ft | 1 kts | 169° |
| 2026-04-15 10:14 | 50.04431 | 8.56331 | 370 ft | 0 kts | 169° |